sensor_id;sensor_type;location;lat;lon;timestamp;pressure;altitude;pressure_sealevel;temperature;humidity
49423;BME280;36998;51.974;20.150;2022-11-10T00:00:27;100072.66;;;10.38;68.40
49423;BME280;36998;51.974;20.150;2022-11-10T00:03:11;100057.31;;;10.39;68.19
49423;BME280;36998;51.974;20.150;2022-11-10T00:05:55;100064.38;;;10.40;68.17
49423;BME280;36998;51.974;20.150;2022-11-10T00:08:39;100062.56;;;10.40;68.46
49423;BME280;36998;51.974;20.150;2022-11-10T00:11:24;100062.38;;;10.42;68.29
49423;BME280;36998;51.974;20.150;2022-11-10T00:14:09;100063.53;;;10.39;68.49
49423;BME280;36998;51.974;20.150;2022-11-10T00:17:13;100063.72;;;10.38;68.13
49423;BME280;36998;51.974;20.150;2022-11-10T00:19:57;100071.81;;;10.38;68.44
49423;BME280;36998;51.974;20.150;2022-11-10T00:22:42;100064.56;;;10.38;68.19
49423;BME280;36998;51.974;20.150;2022-11-10T00:25:26;100066.25;;;10.39;68.15
49423;BME280;36998;51.974;20.150;2022-11-10T00:28:10;100067.63;;;10.43;68.31
49423;BME280;36998;51.974;20.150;2022-11-10T00:30:55;100072.00;;;10.44;68.26
49423;BME280;36998;51.974;20.150;2022-11-10T00:33:41;100075.72;;;10.51;68.14
49423;BME280;36998;51.974;20.150;2022-11-10T00:36:25;100069.63;;;10.58;68.12
49423;BME280;36998;51.974;20.150;2022-11-10T00:39:10;100064.94;;;10.60;67.81
49423;BME280;36998;51.974;20.150;2022-11-10T00:41:55;100072.69;;;10.63;67.89
49423;BME280;36998;51.974;20.150;2022-11-10T00:44:39;100076.06;;;10.65;67.60
49423;BME280;36998;51.974;20.150;2022-11-10T00:47:24;100073.84;;;10.68;67.85
49423;BME280;36998;51.974;20.150;2022-11-10T00:50:08;100073.38;;;10.73;67.75
49423;BME280;36998;51.974;20.150;2022-11-10T00:52:52;100074.53;;;10.70;67.70
49423;BME280;36998;51.974;20.150;2022-11-10T00:55:37;100073.50;;;10.71;67.93
49423;BME280;36998;51.974;20.150;2022-11-10T00:58:22;100073.88;;;10.76;67.74
49423;BME280;36998;51.974;20.150;2022-11-10T01:01:06;100070.97;;;10.78;67.34
49423;BME280;36998;51.974;20.150;2022-11-10T01:03:52;100067.09;;;10.81;67.63
49423;BME280;36998;51.974;20.150;2022-11-10T01:06:36;100067.78;;;10.83;67.21
49423;BME280;36998;51.974;20.150;2022-11-10T01:09:20;100083.81;;;10.84;67.25
49423;BME280;36998;51.974;20.150;2022-11-10T01:12:04;100078.06;;;10.87;67.56
49423;BME280;36998;51.974;20.150;2022-11-10T01:14:48;100076.91;;;10.90;67.52
49423;BME280;36998;51.974;20.150;2022-11-10T01:17:32;100067.91;;;10.97;67.08
49423;BME280;36998;51.974;20.150;2022-11-10T01:20:17;100062.84;;;11.02;67.12
49423;BME280;36998;51.974;20.150;2022-11-10T01:23:01;100073.97;;;11.08;67.39
49423;BME280;36998;51.974;20.150;2022-11-10T01:25:45;100081.75;;;11.11;66.83
49423;BME280;36998;51.974;20.150;2022-11-10T01:28:29;100076.00;;;11.14;66.88
49423;BME280;36998;51.974;20.150;2022-11-10T01:31:16;100073.16;;;11.15;67.05
49423;BME280;36998;51.974;20.150;2022-11-10T01:34:00;100078.03;;;11.20;66.96
49423;BME280;36998;51.974;20.150;2022-11-10T01:36:44;100082.25;;;11.22;66.44
49423;BME280;36998;51.974;20.150;2022-11-10T01:39:28;100080.03;;;11.26;66.50
49423;BME280;36998;51.974;20.150;2022-11-10T01:42:12;100090.66;;;11.28;66.37
49423;BME280;36998;51.974;20.150;2022-11-10T01:45:27;100081.56;;;11.29;66.51
49423;BME280;36998;51.974;20.150;2022-11-10T01:48:25;100078.00;;;11.28;66.75
49423;BME280;36998;51.974;20.150;2022-11-10T01:51:19;100085.44;;;11.26;66.71
49423;BME280;36998;51.974;20.150;2022-11-10T01:54:09;100077.47;;;11.33;66.46
49423;BME280;36998;51.974;20.150;2022-11-10T01:56:59;100080.34;;;11.39;66.42
49423;BME280;36998;51.974;20.150;2022-11-10T01:59:46;100086.56;;;11.48;66.29
49423;BME280;36998;51.974;20.150;2022-11-10T02:02:37;100088.75;;;11.53;66.35
49423;BME280;36998;51.974;20.150;2022-11-10T02:05:25;100095.97;;;11.60;65.79
49423;BME280;36998;51.974;20.150;2022-11-10T02:08:12;100094.78;;;11.63;66.08
49423;BME280;36998;51.974;20.150;2022-11-10T02:10:58;100101.19;;;11.70;65.87
49423;BME280;36998;51.974;20.150;2022-11-10T02:13:42;100096.13;;;11.67;65.90
49423;BME280;36998;51.974;20.150;2022-11-10T02:16:26;100105.91;;;11.76;65.52
49423;BME280;36998;51.974;20.150;2022-11-10T02:19:15;100109.09;;;11.80;65.51
49423;BME280;36998;51.974;20.150;2022-11-10T02:21:59;100117.22;;;11.80;65.75
49423;BME280;36998;51.974;20.150;2022-11-10T02:24:43;100111.44;;;11.83;65.30
49423;BME280;36998;51.974;20.150;2022-11-10T02:27:28;100108.63;;;11.84;65.39
49423;BME280;36998;51.974;20.150;2022-11-10T02:30:14;100104.16;;;11.83;65.61
49423;BME280;36998;51.974;20.150;2022-11-10T02:32:59;100104.69;;;11.87;65.31
49423;BME280;36998;51.974;20.150;2022-11-10T02:35:45;100114.16;;;11.91;65.15
49423;BME280;36998;51.974;20.150;2022-11-10T02:38:29;100107.19;;;11.97;64.71
49423;BME280;36998;51.974;20.150;2022-11-10T02:41:13;100119.38;;;12.01;64.91
49423;BME280;36998;51.974;20.150;2022-11-10T02:43:58;100121.72;;;12.04;65.20
49423;BME280;36998;51.974;20.150;2022-11-10T02:46:42;100128.31;;;12.01;65.01
49423;BME280;36998;51.974;20.150;2022-11-10T02:49:26;100136.09;;;12.04;65.02
49423;BME280;36998;51.974;20.150;2022-11-10T02:52:09;100130.69;;;12.04;65.10
49423;BME280;36998;51.974;20.150;2022-11-10T02:54:54;100127.50;;;12.01;65.10
49423;BME280;36998;51.974;20.150;2022-11-10T02:57:38;100129.84;;;12.04;65.17
49423;BME280;36998;51.974;20.150;2022-11-10T03:00:22;100135.91;;;12.06;65.09
49423;BME280;36998;51.974;20.150;2022-11-10T03:03:07;100129.50;;;12.07;64.79
49423;BME280;36998;51.974;20.150;2022-11-10T03:05:51;100138.25;;;12.09;65.05
49423;BME280;36998;51.974;20.150;2022-11-10T03:08:35;100140.47;;;12.05;65.18
49423;BME280;36998;51.974;20.150;2022-11-10T03:11:20;100150.13;;;12.00;65.03
49423;BME280;36998;51.974;20.150;2022-11-10T03:14:05;100146.44;;;11.92;65.55
49423;BME280;36998;51.974;20.150;2022-11-10T03:16:49;100149.34;;;11.91;65.60
49423;BME280;36998;51.974;20.150;2022-11-10T03:19:33;100152.41;;;11.88;65.24
49423;BME280;36998;51.974;20.150;2022-11-10T03:22:17;100150.34;;;11.90;65.49
49423;BME280;36998;51.974;20.150;2022-11-10T03:25:01;100151.72;;;11.94;65.41
49423;BME280;36998;51.974;20.150;2022-11-10T03:27:46;100160.81;;;12.01;65.59
49423;BME280;36998;51.974;20.150;2022-11-10T03:30:30;100155.56;;;12.00;65.45
49423;BME280;36998;51.974;20.150;2022-11-10T03:33:14;100158.94;;;12.02;65.76
49423;BME280;36998;51.974;20.150;2022-11-10T03:35:58;100164.69;;;11.99;65.66
49423;BME280;36998;51.974;20.150;2022-11-10T03:38:42;100166.25;;;11.93;65.56
49423;BME280;36998;51.974;20.150;2022-11-10T03:41:27;100165.44;;;11.84;65.83
49423;BME280;36998;51.974;20.150;2022-11-10T03:44:11;100163.69;;;11.83;65.79
49423;BME280;36998;51.974;20.150;2022-11-10T03:46:56;100159.66;;;11.79;65.94
49423;BME280;36998;51.974;20.150;2022-11-10T03:49:39;100166.13;;;11.70;66.28
49423;BME280;36998;51.974;20.150;2022-11-10T03:52:24;100166.13;;;11.70;66.78
49423;BME280;36998;51.974;20.150;2022-11-10T03:55:15;100171.38;;;11.63;67.08
49423;BME280;36998;51.974;20.150;2022-11-10T03:58:01;100186.59;;;11.64;66.87
49423;BME280;36998;51.974;20.150;2022-11-10T04:00:46;100190.81;;;11.67;67.30
49423;BME280;36998;51.974;20.150;2022-11-10T04:03:30;100169.34;;;11.65;67.16
49423;BME280;36998;51.974;20.150;2022-11-10T04:06:14;100167.31;;;11.67;67.39
49423;BME280;36998;51.974;20.150;2022-11-10T04:09:17;100172.94;;;11.58;67.72
49423;BME280;36998;51.974;20.150;2022-11-10T04:12:02;100181.22;;;11.48;68.08
49423;BME280;36998;51.974;20.150;2022-11-10T04:15:05;100173.63;;;11.43;68.38
49423;BME280;36998;51.974;20.150;2022-11-10T04:18:09;100179.06;;;11.35;68.82
49423;BME280;36998;51.974;20.150;2022-11-10T04:21:09;100191.38;;;11.30;68.97
49423;BME280;36998;51.974;20.150;2022-11-10T04:23:54;100185.78;;;11.31;69.01
49423;BME280;36998;51.974;20.150;2022-11-10T04:26:39;100190.22;;;11.32;68.94
49423;BME280;36998;51.974;20.150;2022-11-10T04:29:25;100195.94;;;11.29;69.04
49423;BME280;36998;51.974;20.150;2022-11-10T04:32:09;100197.28;;;11.33;69.60
49423;BME280;36998;51.974;20.150;2022-11-10T04:34:53;100196.59;;;11.31;69.55
49423;BME280;36998;51.974;20.150;2022-11-10T04:37:37;100204.22;;;11.36;69.58
49423;BME280;36998;51.974;20.150;2022-11-10T04:40:21;100205.56;;;11.48;69.77
49423;BME280;36998;51.974;20.150;2022-11-10T04:43:05;100205.72;;;11.55;69.86
49423;BME280;36998;51.974;20.150;2022-11-10T04:45:50;100206.72;;;11.62;69.77
49423;BME280;36998;51.974;20.150;2022-11-10T04:48:34;100210.63;;;11.59;69.51
49423;BME280;36998;51.974;20.150;2022-11-10T04:51:20;100209.44;;;11.54;69.67
49423;BME280;36998;51.974;20.150;2022-11-10T04:54:05;100210.97;;;11.48;70.04
49423;BME280;36998;51.974;20.150;2022-11-10T04:56:50;100210.47;;;11.44;70.40
49423;BME280;36998;51.974;20.150;2022-11-10T04:59:33;100208.44;;;11.46;70.19
49423;BME280;36998;51.974;20.150;2022-11-10T05:02:17;100210.81;;;11.41;70.51
49423;BME280;36998;51.974;20.150;2022-11-10T05:05:02;100218.59;;;11.44;70.65
49423;BME280;36998;51.974;20.150;2022-11-10T05:07:47;100213.69;;;11.40;70.90
49423;BME280;36998;51.974;20.150;2022-11-10T05:10:31;100219.28;;;11.38;71.19
49423;BME280;36998;51.974;20.150;2022-11-10T05:13:16;100215.19;;;11.34;71.45
49423;BME280;36998;51.974;20.150;2022-11-10T05:16:00;100226.69;;;11.36;70.93
49423;BME280;36998;51.974;20.150;2022-11-10T05:18:44;100228.41;;;11.29;71.19
49423;BME280;36998;51.974;20.150;2022-11-10T05:21:28;100235.16;;;11.33;71.34
49423;BME280;36998;51.974;20.150;2022-11-10T05:24:13;100230.56;;;11.34;71.19
49423;BME280;36998;51.974;20.150;2022-11-10T05:26:57;100230.94;;;11.39;71.43
49423;BME280;36998;51.974;20.150;2022-11-10T05:29:42;100239.19;;;11.37;71.50
49423;BME280;36998;51.974;20.150;2022-11-10T05:32:26;100247.31;;;11.37;71.78
49423;BME280;36998;51.974;20.150;2022-11-10T05:35:10;100243.94;;;11.35;71.82
49423;BME280;36998;51.974;20.150;2022-11-10T05:37:54;100246.31;;;11.30;71.78
49423;BME280;36998;51.974;20.150;2022-11-10T05:40:38;100253.56;;;11.30;72.00
49423;BME280;36998;51.974;20.150;2022-11-10T05:43:22;100255.09;;;11.32;72.12
49423;BME280;36998;51.974;20.150;2022-11-10T05:46:07;100266.91;;;11.31;72.28
49423;BME280;36998;51.974;20.150;2022-11-10T05:48:51;100261.34;;;11.33;72.03
49423;BME280;36998;51.974;20.150;2022-11-10T05:51:35;100269.78;;;11.38;71.96
49423;BME280;36998;51.974;20.150;2022-11-10T05:54:20;100276.56;;;11.42;72.02
49423;BME280;36998;51.974;20.150;2022-11-10T05:57:04;100284.50;;;11.35;72.17
49423;BME280;36998;51.974;20.150;2022-11-10T05:59:48;100291.94;;;11.33;72.28
49423;BME280;36998;51.974;20.150;2022-11-10T06:02:32;100300.22;;;11.32;72.75
49423;BME280;36998;51.974;20.150;2022-11-10T06:05:16;100301.06;;;11.32;72.99
49423;BME280;36998;51.974;20.150;2022-11-10T06:08:04;100299.34;;;11.31;72.64
49423;BME280;36998;51.974;20.150;2022-11-10T06:10:48;100295.16;;;11.29;72.94
49423;BME280;36998;51.974;20.150;2022-11-10T06:13:32;100311.19;;;11.22;73.15
49423;BME280;36998;51.974;20.150;2022-11-10T06:16:17;100312.03;;;11.22;73.02
49423;BME280;36998;51.974;20.150;2022-11-10T06:19:01;100325.38;;;11.24;73.18
49423;BME280;36998;51.974;20.150;2022-11-10T06:21:45;100330.13;;;11.30;73.33
49423;BME280;36998;51.974;20.150;2022-11-10T06:24:29;100332.16;;;11.36;73.08
49423;BME280;36998;51.974;20.150;2022-11-10T06:27:14;100338.06;;;11.40;73.33
49423;BME280;36998;51.974;20.150;2022-11-10T06:29:58;100344.69;;;11.45;73.39
49423;BME280;36998;51.974;20.150;2022-11-10T06:32:43;100342.47;;;11.49;73.18
49423;BME280;36998;51.974;20.150;2022-11-10T06:35:28;100348.75;;;11.49;73.23
49423;BME280;36998;51.974;20.150;2022-11-10T06:38:13;100349.25;;;11.53;73.07
49423;BME280;36998;51.974;20.150;2022-11-10T06:40:57;100357.34;;;11.53;73.62
49423;BME280;36998;51.974;20.150;2022-11-10T06:43:42;100342.66;;;11.56;73.26
49423;BME280;36998;51.974;20.150;2022-11-10T06:46:26;100348.75;;;11.58;73.39
49423;BME280;36998;51.974;20.150;2022-11-10T06:49:11;100353.97;;;11.59;73.46
49423;BME280;36998;51.974;20.150;2022-11-10T06:51:55;100361.94;;;11.61;73.34
49423;BME280;36998;51.974;20.150;2022-11-10T06:54:38;100363.63;;;11.62;73.70
49423;BME280;36998;51.974;20.150;2022-11-10T06:57:23;100367.00;;;11.64;73.59
49423;BME280;36998;51.974;20.150;2022-11-10T07:00:08;100364.13;;;11.65;73.57
49423;BME280;36998;51.974;20.150;2022-11-10T07:03:04;100370.41;;;11.74;74.06
49423;BME280;36998;51.974;20.150;2022-11-10T07:05:48;100384.59;;;11.76;73.71
49423;BME280;36998;51.974;20.150;2022-11-10T07:08:32;100381.06;;;11.84;73.84
49423;BME280;36998;51.974;20.150;2022-11-10T07:11:16;100385.31;;;11.86;73.65
49423;BME280;36998;51.974;20.150;2022-11-10T07:14:01;100377.19;;;11.86;73.72
49423;BME280;36998;51.974;20.150;2022-11-10T07:16:46;100387.66;;;11.89;73.79
49423;BME280;36998;51.974;20.150;2022-11-10T07:19:30;100398.84;;;12.03;73.53
49423;BME280;36998;51.974;20.150;2022-11-10T07:22:15;100402.38;;;12.03;73.81
49423;BME280;36998;51.974;20.150;2022-11-10T07:24:59;100402.38;;;12.11;73.50
49423;BME280;36998;51.974;20.150;2022-11-10T07:27:43;100402.88;;;12.15;73.34
49423;BME280;36998;51.974;20.150;2022-11-10T07:30:29;100411.03;;;12.23;73.25
49423;BME280;36998;51.974;20.150;2022-11-10T07:33:14;100409.81;;;12.34;73.03
49423;BME280;36998;51.974;20.150;2022-11-10T07:36:01;100404.56;;;12.40;72.65
49423;BME280;36998;51.974;20.150;2022-11-10T07:38:47;100407.06;;;12.42;72.73
49423;BME280;36998;51.974;20.150;2022-11-10T07:41:31;100418.75;;;12.51;72.57
49423;BME280;36998;51.974;20.150;2022-11-10T07:44:16;100419.44;;;12.53;72.42
49423;BME280;36998;51.974;20.150;2022-11-10T07:47:00;100417.38;;;12.55;72.18
49423;BME280;36998;51.974;20.150;2022-11-10T07:49:44;100419.59;;;12.59;72.27
49423;BME280;36998;51.974;20.150;2022-11-10T07:52:28;100425.31;;;12.64;72.33
49423;BME280;36998;51.974;20.150;2022-11-10T07:55:13;100426.84;;;12.75;72.33
49423;BME280;36998;51.974;20.150;2022-11-10T07:57:57;100424.44;;;12.80;72.05
49423;BME280;36998;51.974;20.150;2022-11-10T08:00:41;100435.94;;;12.82;72.02
49423;BME280;36998;51.974;20.150;2022-11-10T08:03:25;100439.00;;;12.79;72.18
49423;BME280;36998;51.974;20.150;2022-11-10T08:06:10;100441.53;;;12.81;72.28
49423;BME280;36998;51.974;20.150;2022-11-10T08:08:53;100447.44;;;12.84;72.23
49423;BME280;36998;51.974;20.150;2022-11-10T08:11:38;100450.50;;;12.89;72.16
49423;BME280;36998;51.974;20.150;2022-11-10T08:14:23;100440.16;;;12.93;72.48
49423;BME280;36998;51.974;20.150;2022-11-10T08:17:07;100456.34;;;13.09;72.27
49423;BME280;36998;51.974;20.150;2022-11-10T08:19:51;100456.50;;;13.16;72.13
49423;BME280;36998;51.974;20.150;2022-11-10T08:22:35;100465.81;;;13.22;72.42
49423;BME280;36998;51.974;20.150;2022-11-10T08:25:20;100471.22;;;13.30;72.37
49423;BME280;36998;51.974;20.150;2022-11-10T08:28:10;100480.31;;;13.37;72.33
49423;BME280;36998;51.974;20.150;2022-11-10T08:30:55;100483.72;;;13.39;72.46
49423;BME280;36998;51.974;20.150;2022-11-10T08:33:39;100497.25;;;13.47;72.09
49423;BME280;36998;51.974;20.150;2022-11-10T08:36:23;100487.41;;;13.46;72.45
49423;BME280;36998;51.974;20.150;2022-11-10T08:39:07;100485.03;;;13.51;72.27
49423;BME280;36998;51.974;20.150;2022-11-10T08:41:52;100491.91;;;13.62;72.34
49423;BME280;36998;51.974;20.150;2022-11-10T08:44:36;100494.59;;;13.70;72.22
49423;BME280;36998;51.974;20.150;2022-11-10T08:47:20;100503.09;;;13.67;72.36
49423;BME280;36998;51.974;20.150;2022-11-10T08:50:06;100495.69;;;13.53;72.46
49423;BME280;36998;51.974;20.150;2022-11-10T08:52:50;100513.41;;;13.41;72.57
49423;BME280;36998;51.974;20.150;2022-11-10T08:55:34;100510.00;;;13.39;72.68
49423;BME280;36998;51.974;20.150;2022-11-10T08:58:20;100523.22;;;13.42;72.86
49423;BME280;36998;51.974;20.150;2022-11-10T09:01:09;100525.25;;;13.40;72.97
49423;BME280;36998;51.974;20.150;2022-11-10T09:03:54;100526.84;;;13.26;73.22
49423;BME280;36998;51.974;20.150;2022-11-10T09:06:38;100533.63;;;13.13;73.96
49423;BME280;36998;51.974;20.150;2022-11-10T09:09:24;100526.72;;;13.03;73.86
49423;BME280;36998;51.974;20.150;2022-11-10T09:12:08;100536.22;;;12.99;74.10
49423;BME280;36998;51.974;20.150;2022-11-10T09:14:51;100535.19;;;13.00;74.27
49423;BME280;36998;51.974;20.150;2022-11-10T09:17:37;100536.53;;;13.04;74.74
49423;BME280;36998;51.974;20.150;2022-11-10T09:20:22;100530.94;;;13.05;74.98
49423;BME280;36998;51.974;20.150;2022-11-10T09:23:11;100542.25;;;13.17;75.21
49423;BME280;36998;51.974;20.150;2022-11-10T09:25:55;100539.84;;;13.39;74.62
49423;BME280;36998;51.974;20.150;2022-11-10T09:28:39;100544.72;;;13.51;74.58
49423;BME280;36998;51.974;20.150;2022-11-10T09:31:24;100549.59;;;13.56;74.61
49423;BME280;36998;51.974;20.150;2022-11-10T09:34:09;100551.81;;;13.61;74.62
49423;BME280;36998;51.974;20.150;2022-11-10T09:36:53;100563.25;;;13.79;74.25
49423;BME280;36998;51.974;20.150;2022-11-10T09:39:37;100565.09;;;13.87;74.19
49423;BME280;36998;51.974;20.150;2022-11-10T09:42:39;100573.19;;;13.95;73.64
49423;BME280;36998;51.974;20.150;2022-11-10T09:45:27;100562.94;;;14.05;73.22
49423;BME280;36998;51.974;20.150;2022-11-10T09:48:24;100567.97;;;14.16;73.01
49423;BME280;36998;51.974;20.150;2022-11-10T09:51:21;100564.03;;;14.42;72.53
49423;BME280;36998;51.974;20.150;2022-11-10T09:57:28;100563.88;;;15.04;71.20
49423;BME280;36998;51.974;20.150;2022-11-10T10:00:16;100571.00;;;15.20;70.98
49423;BME280;36998;51.974;20.150;2022-11-10T10:03:02;100571.13;;;15.41;70.02
49423;BME280;36998;51.974;20.150;2022-11-10T10:09:28;100568.78;;;15.68;70.07
49423;BME280;36998;51.974;20.150;2022-11-10T10:12:35;100579.47;;;15.55;69.74
49423;BME280;36998;51.974;20.150;2022-11-10T10:18:58;100593.72;;;15.42;68.75
49423;BME280;36998;51.974;20.150;2022-11-10T10:22:07;100589.41;;;15.33;69.12
49423;BME280;36998;51.974;20.150;2022-11-10T10:24:58;100596.56;;;15.34;68.35
49423;BME280;36998;51.974;20.150;2022-11-10T10:27:49;100600.41;;;15.54;68.33
49423;BME280;36998;51.974;20.150;2022-11-10T10:30:35;100591.75;;;15.65;67.15
49423;BME280;36998;51.974;20.150;2022-11-10T10:33:21;100600.88;;;15.73;67.07
49423;BME280;36998;51.974;20.150;2022-11-10T10:36:14;100599.03;;;15.73;67.12
49423;BME280;36998;51.974;20.150;2022-11-10T10:39:15;100605.22;;;15.67;66.95
49423;BME280;36998;51.974;20.150;2022-11-10T10:42:01;100602.22;;;15.77;66.00
49423;BME280;36998;51.974;20.150;2022-11-10T10:47:57;100618.47;;;15.70;65.99
49423;BME280;36998;51.974;20.150;2022-11-10T10:50:41;100608.38;;;15.56;65.90
49423;BME280;36998;51.974;20.150;2022-11-10T10:53:25;100617.56;;;15.40;66.17
49423;BME280;36998;51.974;20.150;2022-11-10T10:56:18;100604.72;;;15.34;66.04
49423;BME280;36998;51.974;20.150;2022-11-10T10:59:04;100613.88;;;15.33;65.77
49423;BME280;36998;51.974;20.150;2022-11-10T11:01:52;100616.25;;;15.36;66.06
49423;BME280;36998;51.974;20.150;2022-11-10T11:04:37;100613.53;;;15.36;65.97
49423;BME280;36998;51.974;20.150;2022-11-10T11:07:23;100604.16;;;15.38;65.69
49423;BME280;36998;51.974;20.150;2022-11-10T11:10:28;100607.06;;;15.52;65.73
49423;BME280;36998;51.974;20.150;2022-11-10T11:13:20;100610.06;;;15.57;65.35
49423;BME280;36998;51.974;20.150;2022-11-10T11:16:07;100607.53;;;15.55;65.45
49423;BME280;36998;51.974;20.150;2022-11-10T11:18:52;100616.63;;;15.48;65.44
49423;BME280;36998;51.974;20.150;2022-11-10T11:24:56;100620.00;;;15.50;65.26
49423;BME280;36998;51.974;20.150;2022-11-10T11:28:21;100625.44;;;15.50;65.20
49423;BME280;36998;51.974;20.150;2022-11-10T11:33:59;100627.91;;;15.44;65.26
49423;BME280;36998;51.974;20.150;2022-11-10T11:37:10;100632.66;;;15.42;65.45
49423;BME280;36998;51.974;20.150;2022-11-10T11:43:23;100644.41;;;15.28;65.28
49423;BME280;36998;51.974;20.150;2022-11-10T11:46:24;100642.22;;;15.23;65.44
49423;BME280;36998;51.974;20.150;2022-11-10T11:52:44;100642.16;;;15.32;65.49
49423;BME280;36998;51.974;20.150;2022-11-10T11:58:42;100648.72;;;15.37;65.09
49423;BME280;36998;51.974;20.150;2022-11-10T12:10:24;100653.72;;;15.63;64.28
49423;BME280;36998;51.974;20.150;2022-11-10T12:13:24;100643.47;;;15.65;64.04
49423;BME280;36998;51.974;20.150;2022-11-10T12:16:25;100651.66;;;15.65;64.09
49423;BME280;36998;51.974;20.150;2022-11-10T12:19:27;100655.59;;;15.63;63.32
49423;BME280;36998;51.974;20.150;2022-11-10T12:22:29;100651.97;;;15.71;63.38
49423;BME280;36998;51.974;20.150;2022-11-10T12:25:25;100658.72;;;15.75;63.30
49423;BME280;36998;51.974;20.150;2022-11-10T12:28:16;100659.09;;;15.72;63.14
49423;BME280;36998;51.974;20.150;2022-11-10T12:31:05;100675.91;;;15.75;62.88
49423;BME280;36998;51.974;20.150;2022-11-10T12:33:56;100684.44;;;15.72;63.12
49423;BME280;36998;51.974;20.150;2022-11-10T12:36:42;100681.56;;;15.74;63.08
49423;BME280;36998;51.974;20.150;2022-11-10T12:39:42;100693.75;;;15.78;63.00
49423;BME280;36998;51.974;20.150;2022-11-10T12:42:30;100697.31;;;15.78;62.81
49423;BME280;36998;51.974;20.150;2022-11-10T12:45:20;100698.06;;;15.72;62.79
49423;BME280;36998;51.974;20.150;2022-11-10T12:48:05;100696.25;;;15.64;62.79
49423;BME280;36998;51.974;20.150;2022-11-10T12:50:58;100698.50;;;15.61;62.75
49423;BME280;36998;51.974;20.150;2022-11-10T12:53:46;100711.44;;;15.59;62.69
49423;BME280;36998;51.974;20.150;2022-11-10T12:56:41;100711.19;;;15.54;62.93
49423;BME280;36998;51.974;20.150;2022-11-10T12:59:35;100709.66;;;15.51;62.92
49423;BME280;36998;51.974;20.150;2022-11-10T13:05:22;100707.88;;;15.43;63.24
49423;BME280;36998;51.974;20.150;2022-11-10T13:08:19;100714.31;;;15.42;63.09
49423;BME280;36998;51.974;20.150;2022-11-10T13:13:57;100723.78;;;15.32;63.47
49423;BME280;36998;51.974;20.150;2022-11-10T13:22:36;100736.25;;;15.26;63.49
49423;BME280;36998;51.974;20.150;2022-11-10T13:34:31;100737.84;;;15.20;63.07
49423;BME280;36998;51.974;20.150;2022-11-10T13:46:02;100761.09;;;15.23;63.01
49423;BME280;36998;51.974;20.150;2022-11-10T13:49:09;100762.44;;;15.04;63.54
49423;BME280;36998;51.974;20.150;2022-11-10T13:52:03;100759.53;;;14.83;63.78
49423;BME280;36998;51.974;20.150;2022-11-10T13:55:14;100776.28;;;14.63;64.00
49423;BME280;36998;51.974;20.150;2022-11-10T13:58:08;100769.00;;;14.47;64.45
49423;BME280;36998;51.974;20.150;2022-11-10T14:01:21;100777.53;;;14.44;64.67
49423;BME280;36998;51.974;20.150;2022-11-10T14:04:05;100777.59;;;14.28;65.47
49423;BME280;36998;51.974;20.150;2022-11-10T14:06:51;100770.53;;;14.11;65.36
49423;BME280;36998;51.974;20.150;2022-11-10T14:09:39;100777.34;;;13.98;65.56
49423;BME280;36998;51.974;20.150;2022-11-10T14:15:39;100795.75;;;14.36;65.74
49423;BME280;36998;51.974;20.150;2022-11-10T14:18:28;100797.25;;;14.86;65.02
49423;BME280;36998;51.974;20.150;2022-11-10T14:21:28;100801.75;;;15.25;64.18
49423;BME280;36998;51.974;20.150;2022-11-10T14:24:18;100802.88;;;15.30;63.77
49423;BME280;36998;51.974;20.150;2022-11-10T14:27:07;100802.22;;;15.05;63.44
49423;BME280;36998;51.974;20.150;2022-11-10T14:30:24;100813.78;;;14.76;63.90
49423;BME280;36998;51.974;20.150;2022-11-10T14:33:10;100821.84;;;14.45;64.49
49423;BME280;36998;51.974;20.150;2022-11-10T14:35:58;100825.84;;;14.18;64.72
49423;BME280;36998;51.974;20.150;2022-11-10T14:38:43;100827.41;;;13.96;65.20
49423;BME280;36998;51.974;20.150;2022-11-10T14:41:27;100837.94;;;13.82;65.18
49423;BME280;36998;51.974;20.150;2022-11-10T14:44:20;100843.56;;;13.65;65.91
49423;BME280;36998;51.974;20.150;2022-11-10T14:47:27;100849.13;;;13.47;66.13
49423;BME280;36998;51.974;20.150;2022-11-10T14:53:22;100857.56;;;13.19;66.68
49423;BME280;36998;51.974;20.150;2022-11-10T14:56:15;100855.69;;;13.11;67.30
49423;BME280;36998;51.974;20.150;2022-11-10T14:59:05;100863.28;;;13.00;67.54
49423;BME280;36998;51.974;20.150;2022-11-10T15:01:55;100866.63;;;12.85;67.85
49423;BME280;36998;51.974;20.150;2022-11-10T15:04:41;100864.50;;;12.71;67.75
49423;BME280;36998;51.974;20.150;2022-11-10T15:07:26;100865.66;;;12.60;68.17
49423;BME280;36998;51.974;20.150;2022-11-10T15:10:15;100873.22;;;12.49;68.37
49423;BME280;36998;51.974;20.150;2022-11-10T15:13:05;100882.16;;;12.41;68.77
49423;BME280;36998;51.974;20.150;2022-11-10T15:19:26;100897.34;;;12.34;68.91
49423;BME280;36998;51.974;20.150;2022-11-10T15:22:16;100910.06;;;12.33;69.53
49423;BME280;36998;51.974;20.150;2022-11-10T15:25:06;100914.63;;;12.59;68.70
49423;BME280;36998;51.974;20.150;2022-11-10T15:27:56;100913.06;;;12.56;69.05
49423;BME280;36998;51.974;20.150;2022-11-10T15:30:48;100923.22;;;12.54;69.28
49423;BME280;36998;51.974;20.150;2022-11-10T15:33:36;100910.81;;;12.52;69.54
49423;BME280;36998;51.974;20.150;2022-11-10T15:41:56;100928.31;;;12.31;69.56
49423;BME280;36998;51.974;20.150;2022-11-10T15:44:44;100940.69;;;12.34;69.81
49423;BME280;36998;51.974;20.150;2022-11-10T15:47:29;100941.16;;;12.29;69.71